Flight Number: AVA4022 Duration: 2:30
Departure: Darwin Intl (YPDN) at 10:15 Distance: 952.913 Nm
Arrival: Bali Intl (WADD) at 12:45 Equipment: B737

Weather Information
Darwin Airport, Australia (YPDN) 12-24S 130-52E 30M Jun 19, 2024 - 09:00 AM EDT / 2024.06.19 1300 UTC
Wind: from the S (190 degrees) at 3 MPH (3 KT):0
Visibility: greater than 7 mile(s):0 Temperature: 71 F (22 C) Dew Point: 62 F (17 C) Relative Humidity: 73% Pressure (altimeter): 29.91 in. Hg (1013 hPa)
ob: YPDN 191300Z 19003KT CAVOK 22/17 Q1013 cycle: 13
Sunrise: 21:38 Sunset: 08:57 (UTC)

Station name not available Jun 19, 2024 - 09:00 AM EDT / 2024.06.19 1300 UTC
Wind: from the SE (130 degrees) at 14 MPH (12 KT):0
Visibility: greater than 7 mile(s):0
Sky conditions: partly cloudy Temperature: 80 F (27 C) Dew Point: 73 F (23 C) Relative Humidity: 78% Pressure (altimeter): 29.83 in. Hg (1010 hPa)
ob: WADD 191300Z 13012KT 9999 SCT016 27/23 Q1010 NOSIG cycle: 13
Sunrise: 22:34 Sunset: 10:06 (UTC)

TAF:2024/06/19 12:06 TAF WADD 191100Z 1912/2012 12013KT 9999 SCT016

This route has never been flown.

Route map